sensor_id;sensor_type;location;lat;lon;timestamp;temperature;humidity
17092;DHT22;8661;45.700;4.880;2023-10-19T00:00:20;17.80;99.90
17092;DHT22;8661;45.700;4.880;2023-10-19T00:02:50;17.70;99.90
17092;DHT22;8661;45.700;4.880;2023-10-19T00:05:20;17.70;99.90
17092;DHT22;8661;45.700;4.880;2023-10-19T00:07:46;17.80;99.90
17092;DHT22;8661;45.700;4.880;2023-10-19T00:10:14;17.80;99.90
17092;DHT22;8661;45.700;4.880;2023-10-19T00:12:42;17.80;99.90
17092;DHT22;8661;45.700;4.880;2023-10-19T00:15:15;17.80;99.90
17092;DHT22;8661;45.700;4.880;2023-10-19T00:17:48;17.70;99.90
17092;DHT22;8661;45.700;4.880;2023-10-19T00:20:19;17.70;99.90
17092;DHT22;8661;45.700;4.880;2023-10-19T00:23:01;17.80;99.90
17092;DHT22;8661;45.700;4.880;2023-10-19T00:25:32;17.70;99.90
17092;DHT22;8661;45.700;4.880;2023-10-19T00:28:00;17.70;99.90
17092;DHT22;8661;45.700;4.880;2023-10-19T00:30:30;17.80;99.90
17092;DHT22;8661;45.700;4.880;2023-10-19T00:33:01;17.80;99.90
17092;DHT22;8661;45.700;4.880;2023-10-19T00:35:29;17.80;99.90
17092;DHT22;8661;45.700;4.880;2023-10-19T00:38:02;17.80;99.90
17092;DHT22;8661;45.700;4.880;2023-10-19T00:40:54;17.80;99.90
17092;DHT22;8661;45.700;4.880;2023-10-19T00:43:29;17.80;99.90
17092;DHT22;8661;45.700;4.880;2023-10-19T00:45:59;17.80;99.90
17092;DHT22;8661;45.700;4.880;2023-10-19T00:48:28;17.80;99.90
17092;DHT22;8661;45.700;4.880;2023-10-19T00:50:58;17.70;99.90
17092;DHT22;8661;45.700;4.880;2023-10-19T00:53:35;17.80;99.90
17092;DHT22;8661;45.700;4.880;2023-10-19T00:56:06;17.80;99.90
17092;DHT22;8661;45.700;4.880;2023-10-19T00:58:35;17.70;99.90
17092;DHT22;8661;45.700;4.880;2023-10-19T01:01:05;17.80;99.90
17092;DHT22;8661;45.700;4.880;2023-10-19T01:03:32;17.80;99.90
17092;DHT22;8661;45.700;4.880;2023-10-19T01:06:03;17.80;99.90
17092;DHT22;8661;45.700;4.880;2023-10-19T01:08:36;17.80;99.90
17092;DHT22;8661;45.700;4.880;2023-10-19T01:11:09;17.70;99.90
17092;DHT22;8661;45.700;4.880;2023-10-19T01:13:37;17.70;99.90
17092;DHT22;8661;45.700;4.880;2023-10-19T01:16:12;17.70;99.90
17092;DHT22;8661;45.700;4.880;2023-10-19T01:18:47;17.70;99.90
17092;DHT22;8661;45.700;4.880;2023-10-19T01:21:14;17.70;99.90
17092;DHT22;8661;45.700;4.880;2023-10-19T01:23:47;17.70;99.90
17092;DHT22;8661;45.700;4.880;2023-10-19T01:26:14;17.60;99.90
17092;DHT22;8661;45.700;4.880;2023-10-19T01:28:48;17.60;99.90
17092;DHT22;8661;45.700;4.880;2023-10-19T01:31:18;17.60;99.90
17092;DHT22;8661;45.700;4.880;2023-10-19T01:33:56;17.60;99.90
17092;DHT22;8661;45.700;4.880;2023-10-19T01:36:24;17.60;99.90
17092;DHT22;8661;45.700;4.880;2023-10-19T01:38:54;17.60;99.90
17092;DHT22;8661;45.700;4.880;2023-10-19T01:41:21;17.60;99.90
17092;DHT22;8661;45.700;4.880;2023-10-19T01:43:50;17.60;99.90
17092;DHT22;8661;45.700;4.880;2023-10-19T01:46:17;17.60;99.90
17092;DHT22;8661;45.700;4.880;2023-10-19T01:48:49;17.60;99.90
17092;DHT22;8661;45.700;4.880;2023-10-19T01:51:20;17.60;99.90
17092;DHT22;8661;45.700;4.880;2023-10-19T01:53:48;17.70;99.90
17092;DHT22;8661;45.700;4.880;2023-10-19T01:56:16;17.70;99.90
17092;DHT22;8661;45.700;4.880;2023-10-19T01:58:46;17.70;99.90
17092;DHT22;8661;45.700;4.880;2023-10-19T02:01:13;17.60;99.90
17092;DHT22;8661;45.700;4.880;2023-10-19T02:03:46;17.60;99.90
17092;DHT22;8661;45.700;4.880;2023-10-19T02:06:13;17.70;99.90
17092;DHT22;8661;45.700;4.880;2023-10-19T02:08:45;17.70;99.90
17092;DHT22;8661;45.700;4.880;2023-10-19T02:11:15;17.70;99.90
17092;DHT22;8661;45.700;4.880;2023-10-19T02:13:44;17.70;99.90
17092;DHT22;8661;45.700;4.880;2023-10-19T02:16:12;17.80;99.90
17092;DHT22;8661;45.700;4.880;2023-10-19T02:18:41;17.80;99.90
17092;DHT22;8661;45.700;4.880;2023-10-19T02:21:07;17.80;99.90
17092;DHT22;8661;45.700;4.880;2023-10-19T02:23:37;17.80;99.90
17092;DHT22;8661;45.700;4.880;2023-10-19T02:26:04;17.80;99.90
17092;DHT22;8661;45.700;4.880;2023-10-19T02:28:32;17.90;99.90
17092;DHT22;8661;45.700;4.880;2023-10-19T02:31:02;17.90;99.90
17092;DHT22;8661;45.700;4.880;2023-10-19T02:33:41;18.00;99.90
17092;DHT22;8661;45.700;4.880;2023-10-19T02:36:11;18.00;99.90
17092;DHT22;8661;45.700;4.880;2023-10-19T02:38:40;18.00;99.90
17092;DHT22;8661;45.700;4.880;2023-10-19T02:41:09;18.00;99.90
17092;DHT22;8661;45.700;4.880;2023-10-19T02:43:38;18.00;99.90
17092;DHT22;8661;45.700;4.880;2023-10-19T02:46:04;18.00;99.90
17092;DHT22;8661;45.700;4.880;2023-10-19T02:48:31;18.00;99.90
17092;DHT22;8661;45.700;4.880;2023-10-19T02:50:56;18.00;99.90
17092;DHT22;8661;45.700;4.880;2023-10-19T02:53:32;18.00;99.90
17092;DHT22;8661;45.700;4.880;2023-10-19T02:55:58;18.00;99.90
17092;DHT22;8661;45.700;4.880;2023-10-19T02:58:27;18.00;99.90
17092;DHT22;8661;45.700;4.880;2023-10-19T03:00:55;18.10;99.90
17092;DHT22;8661;45.700;4.880;2023-10-19T03:03:22;18.10;99.90
17092;DHT22;8661;45.700;4.880;2023-10-19T03:05:47;18.10;99.90
17092;DHT22;8661;45.700;4.880;2023-10-19T03:08:14;18.00;99.90
17092;DHT22;8661;45.700;4.880;2023-10-19T03:10:41;18.00;99.90
17092;DHT22;8661;45.700;4.880;2023-10-19T03:13:08;18.10;99.90
17092;DHT22;8661;45.700;4.880;2023-10-19T03:15:35;18.10;99.90
17092;DHT22;8661;45.700;4.880;2023-10-19T03:18:09;18.10;99.90
17092;DHT22;8661;45.700;4.880;2023-10-19T03:20:37;18.00;99.90
17092;DHT22;8661;45.700;4.880;2023-10-19T03:23:06;18.00;99.90
17092;DHT22;8661;45.700;4.880;2023-10-19T03:25:36;18.00;99.90
17092;DHT22;8661;45.700;4.880;2023-10-19T03:28:20;18.10;99.90
17092;DHT22;8661;45.700;4.880;2023-10-19T03:30:51;18.10;99.90
17092;DHT22;8661;45.700;4.880;2023-10-19T03:33:22;18.10;99.90
17092;DHT22;8661;45.700;4.880;2023-10-19T03:35:52;18.00;99.90
17092;DHT22;8661;45.700;4.880;2023-10-19T03:38:19;18.00;99.90
17092;DHT22;8661;45.700;4.880;2023-10-19T03:40:48;17.90;99.90
17092;DHT22;8661;45.700;4.880;2023-10-19T03:43:23;17.90;99.90
17092;DHT22;8661;45.700;4.880;2023-10-19T03:45:52;17.90;99.90
17092;DHT22;8661;45.700;4.880;2023-10-19T03:48:22;17.90;99.90
17092;DHT22;8661;45.700;4.880;2023-10-19T03:50:52;17.90;99.90
17092;DHT22;8661;45.700;4.880;2023-10-19T03:53:21;17.80;99.90
17092;DHT22;8661;45.700;4.880;2023-10-19T03:55:48;17.80;99.90
17092;DHT22;8661;45.700;4.880;2023-10-19T03:58:16;17.80;99.90
17092;DHT22;8661;45.700;4.880;2023-10-19T04:00:46;17.80;99.90
17092;DHT22;8661;45.700;4.880;2023-10-19T04:03:14;17.70;99.90
17092;DHT22;8661;45.700;4.880;2023-10-19T04:05:44;17.70;99.90
17092;DHT22;8661;45.700;4.880;2023-10-19T04:08:14;17.70;99.90
17092;DHT22;8661;45.700;4.880;2023-10-19T04:10:46;17.70;99.90
17092;DHT22;8661;45.700;4.880;2023-10-19T04:13:33;17.50;99.90
17092;DHT22;8661;45.700;4.880;2023-10-19T04:16:00;17.50;99.90
17092;DHT22;8661;45.700;4.880;2023-10-19T04:18:26;17.40;99.90
17092;DHT22;8661;45.700;4.880;2023-10-19T04:20:55;17.30;99.90
17092;DHT22;8661;45.700;4.880;2023-10-19T04:23:23;17.30;99.90
17092;DHT22;8661;45.700;4.880;2023-10-19T04:25:53;17.20;99.90
17092;DHT22;8661;45.700;4.880;2023-10-19T04:28:23;17.20;99.90
17092;DHT22;8661;45.700;4.880;2023-10-19T04:30:57;17.10;99.90
17092;DHT22;8661;45.700;4.880;2023-10-19T04:33:28;17.10;99.90
17092;DHT22;8661;45.700;4.880;2023-10-19T04:35:57;17.00;99.90
17092;DHT22;8661;45.700;4.880;2023-10-19T04:38:26;17.00;99.90
17092;DHT22;8661;45.700;4.880;2023-10-19T04:41:03;16.90;99.90
17092;DHT22;8661;45.700;4.880;2023-10-19T04:43:48;16.90;99.90
17092;DHT22;8661;45.700;4.880;2023-10-19T04:46:26;16.90;99.90
17092;DHT22;8661;45.700;4.880;2023-10-19T04:48:54;16.80;99.90
17092;DHT22;8661;45.700;4.880;2023-10-19T04:51:24;16.80;99.90
17092;DHT22;8661;45.700;4.880;2023-10-19T04:53:51;16.80;99.90
17092;DHT22;8661;45.700;4.880;2023-10-19T05:08:54;16.70;99.90
17092;DHT22;8661;45.700;4.880;2023-10-19T05:11:23;16.70;99.90
17092;DHT22;8661;45.700;4.880;2023-10-19T05:14:12;16.70;99.90
17092;DHT22;8661;45.700;4.880;2023-10-19T05:16:42;16.70;99.90
17092;DHT22;8661;45.700;4.880;2023-10-19T05:19:14;16.70;99.90
17092;DHT22;8661;45.700;4.880;2023-10-19T05:21:43;16.70;99.90
17092;DHT22;8661;45.700;4.880;2023-10-19T05:24:14;16.60;99.90
17092;DHT22;8661;45.700;4.880;2023-10-19T05:26:51;16.60;99.90
17092;DHT22;8661;45.700;4.880;2023-10-19T05:29:21;16.60;99.90
17092;DHT22;8661;45.700;4.880;2023-10-19T05:31:50;16.60;99.90
17092;DHT22;8661;45.700;4.880;2023-10-19T05:34:20;16.60;99.90
17092;DHT22;8661;45.700;4.880;2023-10-19T05:36:58;16.60;99.90
17092;DHT22;8661;45.700;4.880;2023-10-19T05:39:36;16.60;99.90
17092;DHT22;8661;45.700;4.880;2023-10-19T05:42:16;16.50;99.90
17092;DHT22;8661;45.700;4.880;2023-10-19T05:45:04;16.50;99.90
17092;DHT22;8661;45.700;4.880;2023-10-19T05:47:32;16.50;99.90
17092;DHT22;8661;45.700;4.880;2023-10-19T05:50:00;16.50;99.90
17092;DHT22;8661;45.700;4.880;2023-10-19T05:52:28;16.50;99.90
17092;DHT22;8661;45.700;4.880;2023-10-19T05:54:56;16.50;99.90
17092;DHT22;8661;45.700;4.880;2023-10-19T05:57:25;16.50;99.90
17092;DHT22;8661;45.700;4.880;2023-10-19T05:59:52;16.50;99.90
17092;DHT22;8661;45.700;4.880;2023-10-19T06:02:19;16.50;99.90
17092;DHT22;8661;45.700;4.880;2023-10-19T06:04:46;16.50;99.90
17092;DHT22;8661;45.700;4.880;2023-10-19T06:07:13;16.50;99.90
17092;DHT22;8661;45.700;4.880;2023-10-19T06:09:40;16.50;99.90
17092;DHT22;8661;45.700;4.880;2023-10-19T06:12:09;16.50;99.90
17092;DHT22;8661;45.700;4.880;2023-10-19T06:14:35;16.50;99.90
17092;DHT22;8661;45.700;4.880;2023-10-19T06:17:03;16.40;99.90
17092;DHT22;8661;45.700;4.880;2023-10-19T06:19:30;16.40;99.90
17092;DHT22;8661;45.700;4.880;2023-10-19T06:21:56;16.40;99.90
17092;DHT22;8661;45.700;4.880;2023-10-19T06:24:23;16.40;99.90
17092;DHT22;8661;45.700;4.880;2023-10-19T06:26:50;16.40;99.90
17092;DHT22;8661;45.700;4.880;2023-10-19T06:29:19;16.30;99.90
17092;DHT22;8661;45.700;4.880;2023-10-19T06:31:50;16.30;99.90
17092;DHT22;8661;45.700;4.880;2023-10-19T06:34:17;16.30;99.90
17092;DHT22;8661;45.700;4.880;2023-10-19T06:36:44;16.30;99.90
17092;DHT22;8661;45.700;4.880;2023-10-19T06:39:11;16.30;99.90
17092;DHT22;8661;45.700;4.880;2023-10-19T06:41:39;16.30;99.90
17092;DHT22;8661;45.700;4.880;2023-10-19T06:44:06;16.30;99.90
17092;DHT22;8661;45.700;4.880;2023-10-19T06:46:34;16.20;99.90
17092;DHT22;8661;45.700;4.880;2023-10-19T06:49:01;16.10;99.90
17092;DHT22;8661;45.700;4.880;2023-10-19T06:51:28;16.10;99.90
17092;DHT22;8661;45.700;4.880;2023-10-19T06:53:55;16.10;99.90
17092;DHT22;8661;45.700;4.880;2023-10-19T06:56:23;16.10;99.90
17092;DHT22;8661;45.700;4.880;2023-10-19T06:58:50;16.20;99.90
17092;DHT22;8661;45.700;4.880;2023-10-19T07:01:17;16.30;99.90
17092;DHT22;8661;45.700;4.880;2023-10-19T07:03:45;16.20;99.90
17092;DHT22;8661;45.700;4.880;2023-10-19T07:06:12;16.20;99.90
17092;DHT22;8661;45.700;4.880;2023-10-19T07:08:40;16.20;99.90
17092;DHT22;8661;45.700;4.880;2023-10-19T07:11:07;16.20;99.90
17092;DHT22;8661;45.700;4.880;2023-10-19T07:13:34;16.20;99.90
17092;DHT22;8661;45.700;4.880;2023-10-19T07:16:02;16.20;99.90
17092;DHT22;8661;45.700;4.880;2023-10-19T07:18:29;16.20;99.90
17092;DHT22;8661;45.700;4.880;2023-10-19T07:20:57;16.20;99.90
17092;DHT22;8661;45.700;4.880;2023-10-19T07:23:29;16.20;99.90
17092;DHT22;8661;45.700;4.880;2023-10-19T07:25:55;16.30;99.90
17092;DHT22;8661;45.700;4.880;2023-10-19T07:28:25;16.30;99.90
17092;DHT22;8661;45.700;4.880;2023-10-19T07:30:53;16.20;99.90
17092;DHT22;8661;45.700;4.880;2023-10-19T07:33:22;16.20;99.90
17092;DHT22;8661;45.700;4.880;2023-10-19T07:35:49;16.20;99.90
17092;DHT22;8661;45.700;4.880;2023-10-19T07:38:21;16.10;99.90
17092;DHT22;8661;45.700;4.880;2023-10-19T07:40:52;16.10;99.90
17092;DHT22;8661;45.700;4.880;2023-10-19T07:43:19;16.10;99.90
17092;DHT22;8661;45.700;4.880;2023-10-19T07:45:47;16.20;99.90
17092;DHT22;8661;45.700;4.880;2023-10-19T07:48:14;16.10;99.90
17092;DHT22;8661;45.700;4.880;2023-10-19T07:50:42;16.10;99.90
17092;DHT22;8661;45.700;4.880;2023-10-19T07:53:11;16.10;99.90
17092;DHT22;8661;45.700;4.880;2023-10-19T07:55:40;16.10;99.90
17092;DHT22;8661;45.700;4.880;2023-10-19T07:58:09;16.10;99.90
17092;DHT22;8661;45.700;4.880;2023-10-19T08:00:36;16.10;99.90
17092;DHT22;8661;45.700;4.880;2023-10-19T08:03:05;16.10;99.90
17092;DHT22;8661;45.700;4.880;2023-10-19T08:05:33;16.10;99.90
17092;DHT22;8661;45.700;4.880;2023-10-19T08:08:00;16.10;99.90
17092;DHT22;8661;45.700;4.880;2023-10-19T08:10:29;16.10;99.90
17092;DHT22;8661;45.700;4.880;2023-10-19T08:12:57;16.10;99.90
17092;DHT22;8661;45.700;4.880;2023-10-19T08:15:25;16.10;99.90
17092;DHT22;8661;45.700;4.880;2023-10-19T08:17:52;16.00;99.90
17092;DHT22;8661;45.700;4.880;2023-10-19T08:20:22;16.00;99.90
17092;DHT22;8661;45.700;4.880;2023-10-19T08:22:56;16.10;99.90
17092;DHT22;8661;45.700;4.880;2023-10-19T08:25:23;16.10;99.90
17092;DHT22;8661;45.700;4.880;2023-10-19T08:27:52;16.00;99.90
17092;DHT22;8661;45.700;4.880;2023-10-19T08:30:24;16.00;99.90
17092;DHT22;8661;45.700;4.880;2023-10-19T08:32:52;15.90;99.90
17092;DHT22;8661;45.700;4.880;2023-10-19T08:35:20;15.90;99.90
17092;DHT22;8661;45.700;4.880;2023-10-19T08:37:50;15.90;99.90
17092;DHT22;8661;45.700;4.880;2023-10-19T08:40:20;15.90;99.90
17092;DHT22;8661;45.700;4.880;2023-10-19T08:42:49;15.90;99.90
17092;DHT22;8661;45.700;4.880;2023-10-19T08:45:16;15.80;99.90
17092;DHT22;8661;45.700;4.880;2023-10-19T08:47:54;15.80;99.90
17092;DHT22;8661;45.700;4.880;2023-10-19T08:50:23;15.90;99.90
17092;DHT22;8661;45.700;4.880;2023-10-19T08:52:52;15.90;99.90
17092;DHT22;8661;45.700;4.880;2023-10-19T08:55:20;15.80;99.90
17092;DHT22;8661;45.700;4.880;2023-10-19T08:57:48;15.80;99.90
17092;DHT22;8661;45.700;4.880;2023-10-19T09:00:16;15.90;99.90
17092;DHT22;8661;45.700;4.880;2023-10-19T09:02:45;15.90;99.90
17092;DHT22;8661;45.700;4.880;2023-10-19T09:05:13;15.90;99.90
17092;DHT22;8661;45.700;4.880;2023-10-19T09:07:46;15.90;99.90
17092;DHT22;8661;45.700;4.880;2023-10-19T09:10:20;15.90;99.90
17092;DHT22;8661;45.700;4.880;2023-10-19T09:12:59;16.00;99.90
17092;DHT22;8661;45.700;4.880;2023-10-19T09:15:27;16.00;99.90
17092;DHT22;8661;45.700;4.880;2023-10-19T09:17:56;16.10;99.90
17092;DHT22;8661;45.700;4.880;2023-10-19T09:20:23;16.10;99.90
17092;DHT22;8661;45.700;4.880;2023-10-19T09:22:54;16.10;99.90
17092;DHT22;8661;45.700;4.880;2023-10-19T09:25:22;16.10;99.90
17092;DHT22;8661;45.700;4.880;2023-10-19T09:27:50;16.10;99.90
17092;DHT22;8661;45.700;4.880;2023-10-19T09:30:17;16.10;99.90
17092;DHT22;8661;45.700;4.880;2023-10-19T09:32:47;16.10;99.90
17092;DHT22;8661;45.700;4.880;2023-10-19T09:35:16;16.20;99.90
17092;DHT22;8661;45.700;4.880;2023-10-19T09:37:44;16.10;99.90
17092;DHT22;8661;45.700;4.880;2023-10-19T09:40:13;16.20;99.90
17092;DHT22;8661;45.700;4.880;2023-10-19T09:42:40;16.20;99.90
17092;DHT22;8661;45.700;4.880;2023-10-19T09:45:12;16.30;99.90
17092;DHT22;8661;45.700;4.880;2023-10-19T09:47:41;16.40;99.90
17092;DHT22;8661;45.700;4.880;2023-10-19T09:50:12;16.50;99.90
17092;DHT22;8661;45.700;4.880;2023-10-19T09:52:40;16.50;99.90
17092;DHT22;8661;45.700;4.880;2023-10-19T09:55:10;16.60;99.90
17092;DHT22;8661;45.700;4.880;2023-10-19T09:57:47;16.60;99.90
17092;DHT22;8661;45.700;4.880;2023-10-19T10:00:15;16.80;99.90
17092;DHT22;8661;45.700;4.880;2023-10-19T10:02:49;16.90;99.90
17092;DHT22;8661;45.700;4.880;2023-10-19T10:05:44;17.00;99.90
17092;DHT22;8661;45.700;4.880;2023-10-19T10:08:31;17.00;99.90
17092;DHT22;8661;45.700;4.880;2023-10-19T10:11:17;17.00;99.90
17092;DHT22;8661;45.700;4.880;2023-10-19T10:13:44;17.00;99.90
17092;DHT22;8661;45.700;4.880;2023-10-19T10:16:13;17.00;99.90
17092;DHT22;8661;45.700;4.880;2023-10-19T10:18:41;17.00;99.90
17092;DHT22;8661;45.700;4.880;2023-10-19T10:21:12;17.00;99.90
17092;DHT22;8661;45.700;4.880;2023-10-19T10:23:42;17.00;99.90
17092;DHT22;8661;45.700;4.880;2023-10-19T10:26:11;16.90;99.90
17092;DHT22;8661;45.700;4.880;2023-10-19T10:28:39;17.00;99.90
17092;DHT22;8661;45.700;4.880;2023-10-19T10:31:11;17.10;99.90
17092;DHT22;8661;45.700;4.880;2023-10-19T10:33:45;17.10;99.90
17092;DHT22;8661;45.700;4.880;2023-10-19T10:36:13;17.20;99.90
17092;DHT22;8661;45.700;4.880;2023-10-19T10:38:44;17.30;99.90
17092;DHT22;8661;45.700;4.880;2023-10-19T10:41:11;17.40;99.90
17092;DHT22;8661;45.700;4.880;2023-10-19T10:43:52;17.60;99.90
17092;DHT22;8661;45.700;4.880;2023-10-19T10:46:22;17.60;99.90
17092;DHT22;8661;45.700;4.880;2023-10-19T10:48:49;17.70;99.90
17092;DHT22;8661;45.700;4.880;2023-10-19T10:51:21;17.70;99.90
17092;DHT22;8661;45.700;4.880;2023-10-19T10:53:51;17.70;99.90
17092;DHT22;8661;45.700;4.880;2023-10-19T10:56:19;17.80;99.90
17092;DHT22;8661;45.700;4.880;2023-10-19T10:58:47;18.10;99.90
17092;DHT22;8661;45.700;4.880;2023-10-19T11:01:15;18.30;99.90
17092;DHT22;8661;45.700;4.880;2023-10-19T11:03:42;18.40;99.90
17092;DHT22;8661;45.700;4.880;2023-10-19T11:06:09;18.50;99.90
17092;DHT22;8661;45.700;4.880;2023-10-19T11:08:37;18.50;99.90
17092;DHT22;8661;45.700;4.880;2023-10-19T11:11:08;18.60;99.90
17092;DHT22;8661;45.700;4.880;2023-10-19T11:13:37;18.60;99.90
17092;DHT22;8661;45.700;4.880;2023-10-19T11:16:05;18.60;99.90
17092;DHT22;8661;45.700;4.880;2023-10-19T11:18:37;18.70;99.90
17092;DHT22;8661;45.700;4.880;2023-10-19T11:21:06;18.80;99.90
17092;DHT22;8661;45.700;4.880;2023-10-19T11:23:39;18.80;99.90
17092;DHT22;8661;45.700;4.880;2023-10-19T11:26:08;18.90;99.90
17092;DHT22;8661;45.700;4.880;2023-10-19T11:28:36;19.00;99.90
17092;DHT22;8661;45.700;4.880;2023-10-19T11:31:16;19.30;99.90
17092;DHT22;8661;45.700;4.880;2023-10-19T11:33:44;19.50;99.90
17092;DHT22;8661;45.700;4.880;2023-10-19T11:36:12;19.50;99.90
17092;DHT22;8661;45.700;4.880;2023-10-19T11:38:42;19.60;99.90
17092;DHT22;8661;45.700;4.880;2023-10-19T11:41:11;19.80;99.90
17092;DHT22;8661;45.700;4.880;2023-10-19T11:43:39;20.10;99.90
17092;DHT22;8661;45.700;4.880;2023-10-19T11:46:06;20.20;99.90
17092;DHT22;8661;45.700;4.880;2023-10-19T11:48:34;20.30;99.90
17092;DHT22;8661;45.700;4.880;2023-10-19T11:51:05;20.50;99.90
17092;DHT22;8661;45.700;4.880;2023-10-19T11:53:33;20.60;99.90
17092;DHT22;8661;45.700;4.880;2023-10-19T11:56:02;20.60;99.90
17092;DHT22;8661;45.700;4.880;2023-10-19T11:58:33;20.50;99.90
17092;DHT22;8661;45.700;4.880;2023-10-19T12:01:01;20.40;99.90
17092;DHT22;8661;45.700;4.880;2023-10-19T12:03:30;20.30;99.90
17092;DHT22;8661;45.700;4.880;2023-10-19T12:05:57;20.10;99.90
17092;DHT22;8661;45.700;4.880;2023-10-19T12:08:24;20.00;99.90
17092;DHT22;8661;45.700;4.880;2023-10-19T12:10:51;19.90;99.90
17092;DHT22;8661;45.700;4.880;2023-10-19T12:13:18;19.80;99.90
17092;DHT22;8661;45.700;4.880;2023-10-19T12:15:47;19.60;99.90
17092;DHT22;8661;45.700;4.880;2023-10-19T12:18:19;19.60;99.90
17092;DHT22;8661;45.700;4.880;2023-10-19T12:20:46;19.40;99.90
17092;DHT22;8661;45.700;4.880;2023-10-19T12:23:13;19.40;99.90
17092;DHT22;8661;45.700;4.880;2023-10-19T12:25:40;19.40;99.90
17092;DHT22;8661;45.700;4.880;2023-10-19T12:28:08;19.30;99.90
17092;DHT22;8661;45.700;4.880;2023-10-19T12:30:40;19.30;99.90
17092;DHT22;8661;45.700;4.880;2023-10-19T12:33:09;19.30;99.90
17092;DHT22;8661;45.700;4.880;2023-10-19T12:35:38;19.30;99.90
17092;DHT22;8661;45.700;4.880;2023-10-19T12:38:13;19.30;99.90
17092;DHT22;8661;45.700;4.880;2023-10-19T12:40:46;19.30;99.90
17092;DHT22;8661;45.700;4.880;2023-10-19T12:43:14;19.30;99.90
17092;DHT22;8661;45.700;4.880;2023-10-19T12:45:44;19.40;99.90
17092;DHT22;8661;45.700;4.880;2023-10-19T12:48:17;19.40;99.90
17092;DHT22;8661;45.700;4.880;2023-10-19T12:50:44;19.40;99.90
17092;DHT22;8661;45.700;4.880;2023-10-19T12:53:11;19.40;99.90
17092;DHT22;8661;45.700;4.880;2023-10-19T12:55:39;19.50;99.90
17092;DHT22;8661;45.700;4.880;2023-10-19T12:58:09;19.50;99.90
17092;DHT22;8661;45.700;4.880;2023-10-19T13:00:37;19.50;99.90
17092;DHT22;8661;45.700;4.880;2023-10-19T13:03:07;19.50;99.90
17092;DHT22;8661;45.700;4.880;2023-10-19T13:05:41;19.60;99.90
17092;DHT22;8661;45.700;4.880;2023-10-19T13:08:12;19.60;99.90
17092;DHT22;8661;45.700;4.880;2023-10-19T13:10:48;19.60;99.90
17092;DHT22;8661;45.700;4.880;2023-10-19T13:13:16;19.60;99.90
17092;DHT22;8661;45.700;4.880;2023-10-19T13:15:45;19.60;99.90
17092;DHT22;8661;45.700;4.880;2023-10-19T13:18:14;19.60;99.90
17092;DHT22;8661;45.700;4.880;2023-10-19T13:20:47;19.70;99.90
17092;DHT22;8661;45.700;4.880;2023-10-19T13:23:14;19.70;99.90
17092;DHT22;8661;45.700;4.880;2023-10-19T13:25:42;19.60;99.90
17092;DHT22;8661;45.700;4.880;2023-10-19T13:28:16;19.60;99.90
17092;DHT22;8661;45.700;4.880;2023-10-19T13:30:47;19.70;99.90
17092;DHT22;8661;45.700;4.880;2023-10-19T13:33:14;19.70;99.90
17092;DHT22;8661;45.700;4.880;2023-10-19T13:35:44;19.70;99.90
17092;DHT22;8661;45.700;4.880;2023-10-19T13:38:13;19.70;99.90
17092;DHT22;8661;45.700;4.880;2023-10-19T13:40:41;19.80;99.90
17092;DHT22;8661;45.700;4.880;2023-10-19T13:43:09;19.80;99.90
17092;DHT22;8661;45.700;4.880;2023-10-19T13:45:40;19.80;99.90
17092;DHT22;8661;45.700;4.880;2023-10-19T13:48:09;20.00;99.90
17092;DHT22;8661;45.700;4.880;2023-10-19T13:50:41;20.00;99.90
17092;DHT22;8661;45.700;4.880;2023-10-19T13:53:09;20.00;99.90
17092;DHT22;8661;45.700;4.880;2023-10-19T13:55:38;20.10;99.90
17092;DHT22;8661;45.700;4.880;2023-10-19T13:58:08;20.10;99.90
17092;DHT22;8661;45.700;4.880;2023-10-19T14:00:41;20.20;99.90
17092;DHT22;8661;45.700;4.880;2023-10-19T14:03:11;20.20;99.90
17092;DHT22;8661;45.700;4.880;2023-10-19T14:05:40;20.20;99.90
17092;DHT22;8661;45.700;4.880;2023-10-19T14:08:08;20.30;99.90
17092;DHT22;8661;45.700;4.880;2023-10-19T14:10:37;20.40;99.90
17092;DHT22;8661;45.700;4.880;2023-10-19T14:13:07;20.40;99.90
17092;DHT22;8661;45.700;4.880;2023-10-19T14:15:34;20.50;99.90
17092;DHT22;8661;45.700;4.880;2023-10-19T14:18:01;20.70;99.90
17092;DHT22;8661;45.700;4.880;2023-10-19T14:20:29;20.80;99.90
17092;DHT22;8661;45.700;4.880;2023-10-19T14:22:57;20.90;99.90
17092;DHT22;8661;45.700;4.880;2023-10-19T14:25:24;21.00;99.90
17092;DHT22;8661;45.700;4.880;2023-10-19T14:27:55;21.20;99.90
17092;DHT22;8661;45.700;4.880;2023-10-19T14:30:26;21.20;99.90
17092;DHT22;8661;45.700;4.880;2023-10-19T14:32:53;21.20;99.90
17092;DHT22;8661;45.700;4.880;2023-10-19T14:35:23;21.20;99.90
17092;DHT22;8661;45.700;4.880;2023-10-19T14:37:51;21.30;99.90
17092;DHT22;8661;45.700;4.880;2023-10-19T14:40:21;21.40;99.90
17092;DHT22;8661;45.700;4.880;2023-10-19T14:42:49;21.40;99.90
17092;DHT22;8661;45.700;4.880;2023-10-19T14:45:21;21.40;99.90
17092;DHT22;8661;45.700;4.880;2023-10-19T14:47:52;21.30;99.90
17092;DHT22;8661;45.700;4.880;2023-10-19T14:50:20;21.30;99.90
17092;DHT22;8661;45.700;4.880;2023-10-19T14:52:49;21.20;99.90
17092;DHT22;8661;45.700;4.880;2023-10-19T14:55:16;21.20;99.90
17092;DHT22;8661;45.700;4.880;2023-10-19T14:57:44;21.30;99.90
17092;DHT22;8661;45.700;4.880;2023-10-19T15:00:15;21.20;99.90
17092;DHT22;8661;45.700;4.880;2023-10-19T15:02:49;21.20;99.90
17092;DHT22;8661;45.700;4.880;2023-10-19T15:05:17;21.20;99.90
17092;DHT22;8661;45.700;4.880;2023-10-19T15:07:47;21.20;99.90
17092;DHT22;8661;45.700;4.880;2023-10-19T15:10:18;21.20;99.90
17092;DHT22;8661;45.700;4.880;2023-10-19T15:12:46;21.20;99.90
17092;DHT22;8661;45.700;4.880;2023-10-19T15:15:13;21.20;99.90
17092;DHT22;8661;45.700;4.880;2023-10-19T15:17:41;21.20;99.90
17092;DHT22;8661;45.700;4.880;2023-10-19T15:20:11;21.20;99.90
17092;DHT22;8661;45.700;4.880;2023-10-19T15:22:40;21.20;99.90
17092;DHT22;8661;45.700;4.880;2023-10-19T15:25:11;21.20;99.90
17092;DHT22;8661;45.700;4.880;2023-10-19T15:27:39;21.20;99.90
17092;DHT22;8661;45.700;4.880;2023-10-19T15:30:08;21.20;99.90
17092;DHT22;8661;45.700;4.880;2023-10-19T15:32:37;21.10;99.90
17092;DHT22;8661;45.700;4.880;2023-10-19T15:35:04;21.10;99.90
17092;DHT22;8661;45.700;4.880;2023-10-19T15:37:33;21.10;99.90
17092;DHT22;8661;45.700;4.880;2023-10-19T15:39:59;21.00;99.90
17092;DHT22;8661;45.700;4.880;2023-10-19T15:42:26;21.00;99.90
17092;DHT22;8661;45.700;4.880;2023-10-19T15:44:53;21.00;99.90
17092;DHT22;8661;45.700;4.880;2023-10-19T15:47:20;21.00;99.90
17092;DHT22;8661;45.700;4.880;2023-10-19T15:49:50;21.00;99.90
17092;DHT22;8661;45.700;4.880;2023-10-19T15:52:19;21.00;99.90
17092;DHT22;8661;45.700;4.880;2023-10-19T15:54:48;20.90;99.90
17092;DHT22;8661;45.700;4.880;2023-10-19T15:57:16;20.90;99.90
17092;DHT22;8661;45.700;4.880;2023-10-19T15:59:43;20.90;99.90
17092;DHT22;8661;45.700;4.880;2023-10-19T16:02:11;20.90;99.90
17092;DHT22;8661;45.700;4.880;2023-10-19T16:04:38;20.90;99.90
17092;DHT22;8661;45.700;4.880;2023-10-19T16:07:06;20.90;99.90
17092;DHT22;8661;45.700;4.880;2023-10-19T16:09:33;20.90;99.90
17092;DHT22;8661;45.700;4.880;2023-10-19T16:12:01;20.90;99.90